sensor_id;sensor_type;location;lat;lon;timestamp;pressure;altitude;pressure_sealevel;temperature;humidity
6198;BME280;3132;42.622;23.328;2022-11-20T00:00:25;92147.78;;;17.21;63.39
6198;BME280;3132;42.622;23.328;2022-11-20T00:02:50;92117.53;;;17.18;63.82
6198;BME280;3132;42.622;23.328;2022-11-20T00:05:16;92143.91;;;17.18;63.68
6198;BME280;3132;42.622;23.328;2022-11-20T00:07:41;92139.22;;;17.12;63.60
6198;BME280;3132;42.622;23.328;2022-11-20T00:10:07;92166.59;;;17.19;63.82
6198;BME280;3132;42.622;23.328;2022-11-20T00:12:32;92160.19;;;17.20;63.67
6198;BME280;3132;42.622;23.328;2022-11-20T00:14:58;92145.34;;;17.28;63.51
6198;BME280;3132;42.622;23.328;2022-11-20T00:17:23;92129.09;;;17.26;63.19
6198;BME280;3132;42.622;23.328;2022-11-20T00:19:48;92136.78;;;17.31;63.11
6198;BME280;3132;42.622;23.328;2022-11-20T00:22:14;92131.84;;;17.17;64.35
6198;BME280;3132;42.622;23.328;2022-11-20T00:24:39;92096.34;;;17.15;64.33
6198;BME280;3132;42.622;23.328;2022-11-20T00:27:04;92087.63;;;17.26;63.16
6198;BME280;3132;42.622;23.328;2022-11-20T00:29:30;92099.09;;;17.30;63.38
6198;BME280;3132;42.622;23.328;2022-11-20T00:31:55;92110.41;;;17.19;63.60
6198;BME280;3132;42.622;23.328;2022-11-20T00:34:20;92099.41;;;17.05;63.43
6198;BME280;3132;42.622;23.328;2022-11-20T00:36:46;92104.81;;;17.08;63.58
6198;BME280;3132;42.622;23.328;2022-11-20T00:39:11;92119.53;;;17.09;63.08
6198;BME280;3132;42.622;23.328;2022-11-20T00:41:36;92094.47;;;17.03;63.46
6198;BME280;3132;42.622;23.328;2022-11-20T00:44:02;92096.22;;;17.23;61.84
6198;BME280;3132;42.622;23.328;2022-11-20T00:46:28;92125.03;;;17.16;62.40
6198;BME280;3132;42.622;23.328;2022-11-20T00:48:54;92153.81;;;17.21;62.21
6198;BME280;3132;42.622;23.328;2022-11-20T00:51:22;92126.78;;;17.24;61.18
6198;BME280;3132;42.622;23.328;2022-11-20T00:53:48;92156.44;;;17.21;61.33
6198;BME280;3132;42.622;23.328;2022-11-20T00:56:16;92156.69;;;17.28;61.18
6198;BME280;3132;42.622;23.328;2022-11-20T00:58:44;92140.50;;;17.42;60.05
6198;BME280;3132;42.622;23.328;2022-11-20T01:03:38;92147.25;;;17.27;61.47
6198;BME280;3132;42.622;23.328;2022-11-20T01:06:06;92151.41;;;17.28;61.68
6198;BME280;3132;42.622;23.328;2022-11-20T01:08:33;92135.34;;;17.21;61.94
6198;BME280;3132;42.622;23.328;2022-11-20T01:11:01;92136.69;;;17.27;61.97
6198;BME280;3132;42.622;23.328;2022-11-20T01:13:27;92101.28;;;17.28;60.97
6198;BME280;3132;42.622;23.328;2022-11-20T01:18:35;92158.44;;;17.24;61.92
6198;BME280;3132;42.622;23.328;2022-11-20T01:21:22;92155.38;;;17.34;61.56
6198;BME280;3132;42.622;23.328;2022-11-20T01:23:49;92125.03;;;17.16;62.92
6198;BME280;3132;42.622;23.328;2022-11-20T01:26:22;92112.03;;;17.23;62.05
6198;BME280;3132;42.622;23.328;2022-11-20T01:28:49;92117.22;;;17.08;62.75
6198;BME280;3132;42.622;23.328;2022-11-20T01:31:18;92093.59;;;17.11;62.84
6198;BME280;3132;42.622;23.328;2022-11-20T01:33:44;92084.34;;;17.17;62.17
6198;BME280;3132;42.622;23.328;2022-11-20T01:36:11;92084.47;;;17.09;62.62
6198;BME280;3132;42.622;23.328;2022-11-20T01:38:37;92106.66;;;17.08;62.75
6198;BME280;3132;42.622;23.328;2022-11-20T01:41:03;92063.06;;;17.10;62.11
6198;BME280;3132;42.622;23.328;2022-11-20T01:43:28;92087.44;;;17.19;61.20
6198;BME280;3132;42.622;23.328;2022-11-20T01:46:17;92065.13;;;17.29;61.14
6198;BME280;3132;42.622;23.328;2022-11-20T01:49:05;92067.09;;;17.20;61.81
6198;BME280;3132;42.622;23.328;2022-11-20T01:51:35;92052.91;;;17.24;60.93
6198;BME280;3132;42.622;23.328;2022-11-20T01:54:07;92082.59;;;17.09;62.08
6198;BME280;3132;42.622;23.328;2022-11-20T01:56:37;92099.63;;;17.00;62.35
6198;BME280;3132;42.622;23.328;2022-11-20T01:59:05;92090.50;;;17.09;62.46
6198;BME280;3132;42.622;23.328;2022-11-20T02:01:33;92085.69;;;17.11;61.69
6198;BME280;3132;42.622;23.328;2022-11-20T02:03:59;92082.19;;;17.07;62.07
6198;BME280;3132;42.622;23.328;2022-11-20T02:06:28;92077.63;;;17.20;60.49
6198;BME280;3132;42.622;23.328;2022-11-20T02:08:54;92103.38;;;17.11;61.38
6198;BME280;3132;42.622;23.328;2022-11-20T02:11:20;92095.00;;;16.97;61.81
6198;BME280;3132;42.622;23.328;2022-11-20T02:13:46;92111.50;;;16.94;62.36
6198;BME280;3132;42.622;23.328;2022-11-20T02:16:34;92112.25;;;16.82;62.67
6198;BME280;3132;42.622;23.328;2022-11-20T02:19:02;92108.19;;;16.85;62.95
6198;BME280;3132;42.622;23.328;2022-11-20T02:24:17;92112.47;;;16.89;62.38
6198;BME280;3132;42.622;23.328;2022-11-20T02:26:53;92124.25;;;17.04;61.11
6198;BME280;3132;42.622;23.328;2022-11-20T02:29:27;92114.03;;;17.02;61.45
6198;BME280;3132;42.622;23.328;2022-11-20T02:31:56;92096.66;;;16.89;61.84
6198;BME280;3132;42.622;23.328;2022-11-20T02:34:23;92120.50;;;16.93;62.03
6198;BME280;3132;42.622;23.328;2022-11-20T02:36:50;92113.03;;;17.07;61.11
6198;BME280;3132;42.622;23.328;2022-11-20T02:39:17;92106.34;;;16.97;62.12
6198;BME280;3132;42.622;23.328;2022-11-20T02:41:44;92110.81;;;16.73;63.36
6198;BME280;3132;42.622;23.328;2022-11-20T02:44:09;92122.78;;;16.70;63.96
6198;BME280;3132;42.622;23.328;2022-11-20T02:46:35;92126.19;;;16.83;63.19
6198;BME280;3132;42.622;23.328;2022-11-20T02:49:04;92134.78;;;16.80;64.20
6198;BME280;3132;42.622;23.328;2022-11-20T02:51:30;92146.00;;;17.01;64.02
6198;BME280;3132;42.622;23.328;2022-11-20T02:53:55;92131.59;;;16.86;64.52
6198;BME280;3132;42.622;23.328;2022-11-20T02:56:20;92144.56;;;16.91;64.78
6198;BME280;3132;42.622;23.328;2022-11-20T02:58:46;92113.00;;;16.71;65.85
6198;BME280;3132;42.622;23.328;2022-11-20T03:01:11;92146.50;;;16.70;65.63
6198;BME280;3132;42.622;23.328;2022-11-20T03:03:37;92162.47;;;16.86;65.01
6198;BME280;3132;42.622;23.328;2022-11-20T03:06:02;92183.66;;;16.89;64.42
6198;BME280;3132;42.622;23.328;2022-11-20T03:08:28;92179.50;;;16.88;65.05
6198;BME280;3132;42.622;23.328;2022-11-20T03:10:53;92127.09;;;16.87;65.00
6198;BME280;3132;42.622;23.328;2022-11-20T03:13:18;92141.72;;;16.96;64.68
6198;BME280;3132;42.622;23.328;2022-11-20T03:15:44;92119.16;;;16.75;65.34
6198;BME280;3132;42.622;23.328;2022-11-20T03:18:09;92161.97;;;16.72;66.07
6198;BME280;3132;42.622;23.328;2022-11-20T03:20:35;92196.31;;;16.84;65.58
6198;BME280;3132;42.622;23.328;2022-11-20T03:23:01;92159.06;;;16.85;64.81
6198;BME280;3132;42.622;23.328;2022-11-20T03:25:26;92164.09;;;16.78;65.63
6198;BME280;3132;42.622;23.328;2022-11-20T03:27:51;92168.66;;;16.57;67.42
6198;BME280;3132;42.622;23.328;2022-11-20T03:30:17;92163.19;;;16.62;66.16
6198;BME280;3132;42.622;23.328;2022-11-20T03:32:42;92166.38;;;16.68;66.04
6198;BME280;3132;42.622;23.328;2022-11-20T03:35:09;92169.03;;;16.68;66.12
6198;BME280;3132;42.622;23.328;2022-11-20T03:37:34;92156.50;;;16.65;66.55
6198;BME280;3132;42.622;23.328;2022-11-20T03:39:59;92183.00;;;16.48;67.37
6198;BME280;3132;42.622;23.328;2022-11-20T03:42:25;92171.03;;;16.50;66.67
6198;BME280;3132;42.622;23.328;2022-11-20T03:45:09;92177.09;;;16.51;67.25
6198;BME280;3132;42.622;23.328;2022-11-20T03:47:35;92170.41;;;16.53;67.17
6198;BME280;3132;42.622;23.328;2022-11-20T03:50:00;92179.63;;;16.59;66.64
6198;BME280;3132;42.622;23.328;2022-11-20T03:52:26;92155.06;;;16.67;65.79
6198;BME280;3132;42.622;23.328;2022-11-20T03:54:51;92182.50;;;16.54;66.22
6198;BME280;3132;42.622;23.328;2022-11-20T03:57:16;92169.56;;;16.73;65.40
6198;BME280;3132;42.622;23.328;2022-11-20T03:59:42;92172.44;;;16.68;65.60
6198;BME280;3132;42.622;23.328;2022-11-20T04:02:07;92170.22;;;16.70;65.30
6198;BME280;3132;42.622;23.328;2022-11-20T04:04:32;92188.00;;;16.61;65.64
6198;BME280;3132;42.622;23.328;2022-11-20T04:06:58;92183.78;;;16.48;66.75
6198;BME280;3132;42.622;23.328;2022-11-20T04:09:23;92178.69;;;16.43;66.83
6198;BME280;3132;42.622;23.328;2022-11-20T04:11:48;92180.06;;;16.49;65.98
6198;BME280;3132;42.622;23.328;2022-11-20T04:14:15;92187.25;;;16.40;66.62
6198;BME280;3132;42.622;23.328;2022-11-20T04:16:41;92160.00;;;16.36;66.81
6198;BME280;3132;42.622;23.328;2022-11-20T04:19:10;92188.09;;;16.32;67.49
6198;BME280;3132;42.622;23.328;2022-11-20T04:21:36;92183.00;;;16.27;67.79
6198;BME280;3132;42.622;23.328;2022-11-20T04:24:02;92188.31;;;16.39;67.84
6198;BME280;3132;42.622;23.328;2022-11-20T04:26:28;92199.78;;;16.43;67.28
6198;BME280;3132;42.622;23.328;2022-11-20T04:28:54;92197.06;;;16.52;67.32
6198;BME280;3132;42.622;23.328;2022-11-20T04:31:28;92204.22;;;16.51;67.00
6198;BME280;3132;42.622;23.328;2022-11-20T04:33:55;92205.50;;;16.45;68.08
6198;BME280;3132;42.622;23.328;2022-11-20T04:36:22;92205.50;;;16.45;67.76
6198;BME280;3132;42.622;23.328;2022-11-20T04:38:59;92192.13;;;16.30;68.64
6198;BME280;3132;42.622;23.328;2022-11-20T04:41:27;92169.13;;;16.39;68.82
6198;BME280;3132;42.622;23.328;2022-11-20T04:43:56;92183.19;;;16.22;69.27
6198;BME280;3132;42.622;23.328;2022-11-20T04:46:25;92189.44;;;16.18;69.39
6198;BME280;3132;42.622;23.328;2022-11-20T04:48:51;92195.44;;;16.06;69.77
6198;BME280;3132;42.622;23.328;2022-11-20T04:51:16;92191.69;;;16.07;69.79
6198;BME280;3132;42.622;23.328;2022-11-20T04:53:42;92192.91;;;15.89;70.26
6198;BME280;3132;42.622;23.328;2022-11-20T04:56:09;92189.38;;;16.26;67.79
6198;BME280;3132;42.622;23.328;2022-11-20T04:58:35;92167.47;;;16.14;69.68
6198;BME280;3132;42.622;23.328;2022-11-20T05:01:12;92190.44;;;16.25;69.04
6198;BME280;3132;42.622;23.328;2022-11-20T05:03:41;92164.34;;;16.20;69.64
6198;BME280;3132;42.622;23.328;2022-11-20T05:06:08;92170.88;;;16.14;69.71
6198;BME280;3132;42.622;23.328;2022-11-20T05:08:34;92171.84;;;16.09;70.04
6198;BME280;3132;42.622;23.328;2022-11-20T05:11:03;92181.22;;;15.98;70.72
6198;BME280;3132;42.622;23.328;2022-11-20T05:13:29;92160.75;;;16.04;70.21
6198;BME280;3132;42.622;23.328;2022-11-20T05:15:55;92167.63;;;15.96;71.72
6198;BME280;3132;42.622;23.328;2022-11-20T05:18:20;92159.78;;;15.88;71.41
6198;BME280;3132;42.622;23.328;2022-11-20T05:20:46;92161.13;;;15.94;71.18
6198;BME280;3132;42.622;23.328;2022-11-20T05:23:11;92153.88;;;15.91;72.80
6198;BME280;3132;42.622;23.328;2022-11-20T05:25:36;92157.13;;;15.88;73.44
6198;BME280;3132;42.622;23.328;2022-11-20T05:28:02;92152.78;;;15.92;73.00
6198;BME280;3132;42.622;23.328;2022-11-20T05:30:27;92133.44;;;15.88;72.94
6198;BME280;3132;42.622;23.328;2022-11-20T05:32:53;92151.81;;;15.76;73.60
6198;BME280;3132;42.622;23.328;2022-11-20T05:35:18;92151.63;;;15.60;74.18
6198;BME280;3132;42.622;23.328;2022-11-20T05:37:43;92164.69;;;15.69;73.48
6198;BME280;3132;42.622;23.328;2022-11-20T05:40:09;92149.88;;;15.85;72.10
6198;BME280;3132;42.622;23.328;2022-11-20T05:42:35;92145.13;;;15.78;71.84
6198;BME280;3132;42.622;23.328;2022-11-20T05:45:02;92147.66;;;15.75;72.46
6198;BME280;3132;42.622;23.328;2022-11-20T05:47:33;92166.19;;;15.99;71.24
6198;BME280;3132;42.622;23.328;2022-11-20T05:49:59;92143.34;;;15.91;71.60
6198;BME280;3132;42.622;23.328;2022-11-20T05:52:24;92130.16;;;15.91;71.20
6198;BME280;3132;42.622;23.328;2022-11-20T05:54:49;92149.19;;;15.96;71.17
6198;BME280;3132;42.622;23.328;2022-11-20T05:57:16;92140.69;;;15.91;70.42
6198;BME280;3132;42.622;23.328;2022-11-20T05:59:41;92142.44;;;15.87;71.21
6198;BME280;3132;42.622;23.328;2022-11-20T06:02:06;92147.72;;;16.08;70.63
6198;BME280;3132;42.622;23.328;2022-11-20T06:04:32;92150.78;;;16.09;69.76
6198;BME280;3132;42.622;23.328;2022-11-20T06:06:57;92155.13;;;16.26;69.11
6198;BME280;3132;42.622;23.328;2022-11-20T06:09:22;92124.03;;;15.87;69.70
6198;BME280;3132;42.622;23.328;2022-11-20T06:11:48;92147.06;;;16.11;70.05
6198;BME280;3132;42.622;23.328;2022-11-20T06:14:13;92154.69;;;16.24;68.35
6198;BME280;3132;42.622;23.328;2022-11-20T06:16:38;92162.34;;;16.17;69.79
6198;BME280;3132;42.622;23.328;2022-11-20T06:19:04;92162.59;;;16.24;68.65
6198;BME280;3132;42.622;23.328;2022-11-20T06:21:29;92154.88;;;16.19;69.34
6198;BME280;3132;42.622;23.328;2022-11-20T06:23:54;92157.97;;;16.21;69.79
6198;BME280;3132;42.622;23.328;2022-11-20T06:26:25;92160.91;;;16.40;67.86
6198;BME280;3132;42.622;23.328;2022-11-20T06:28:51;92171.81;;;16.30;68.21
6198;BME280;3132;42.622;23.328;2022-11-20T06:31:19;92170.44;;;16.33;68.57
6198;BME280;3132;42.622;23.328;2022-11-20T06:33:45;92165.91;;;16.33;69.69
6198;BME280;3132;42.622;23.328;2022-11-20T06:36:13;92170.53;;;16.36;68.75
6198;BME280;3132;42.622;23.328;2022-11-20T06:38:39;92171.53;;;16.44;68.53
6198;BME280;3132;42.622;23.328;2022-11-20T06:41:06;92180.28;;;16.56;67.14
6198;BME280;3132;42.622;23.328;2022-11-20T06:43:32;92130.47;;;16.43;65.49
6198;BME280;3132;42.622;23.328;2022-11-20T06:45:58;92177.81;;;16.72;65.43
6198;BME280;3132;42.622;23.328;2022-11-20T06:48:26;92174.31;;;16.80;64.25
6198;BME280;3132;42.622;23.328;2022-11-20T06:50:52;92181.03;;;16.89;64.26
6198;BME280;3132;42.622;23.328;2022-11-20T06:53:17;92189.28;;;17.00;63.79
6198;BME280;3132;42.622;23.328;2022-11-20T06:55:44;92189.00;;;17.13;63.53
6198;BME280;3132;42.622;23.328;2022-11-20T06:58:10;92176.47;;;17.22;62.82
6198;BME280;3132;42.622;23.328;2022-11-20T07:00:35;92184.06;;;17.36;63.12
6198;BME280;3132;42.622;23.328;2022-11-20T07:03:04;92185.53;;;17.45;62.83
6198;BME280;3132;42.622;23.328;2022-11-20T07:05:30;92214.34;;;17.50;63.16
6198;BME280;3132;42.622;23.328;2022-11-20T07:07:56;92194.41;;;17.29;62.78
6198;BME280;3132;42.622;23.328;2022-11-20T07:10:21;92212.75;;;17.25;64.24
6198;BME280;3132;42.622;23.328;2022-11-20T07:12:51;92198.44;;;17.02;64.36
6198;BME280;3132;42.622;23.328;2022-11-20T07:15:18;92170.50;;;17.01;65.68
6198;BME280;3132;42.622;23.328;2022-11-20T07:17:43;92196.53;;;17.03;64.96
6198;BME280;3132;42.622;23.328;2022-11-20T07:20:09;92205.13;;;17.00;64.66
6198;BME280;3132;42.622;23.328;2022-11-20T07:22:34;92205.78;;;16.97;65.27
6198;BME280;3132;42.622;23.328;2022-11-20T07:25:00;92185.50;;;16.77;65.41
6198;BME280;3132;42.622;23.328;2022-11-20T07:27:26;92210.03;;;16.89;65.84
6198;BME280;3132;42.622;23.328;2022-11-20T07:29:52;92192.03;;;16.91;65.31
6198;BME280;3132;42.622;23.328;2022-11-20T07:32:17;92186.75;;;16.91;66.34
6198;BME280;3132;42.622;23.328;2022-11-20T07:34:42;92203.34;;;16.92;66.05
6198;BME280;3132;42.622;23.328;2022-11-20T07:37:08;92197.31;;;16.91;66.30
6198;BME280;3132;42.622;23.328;2022-11-20T07:39:33;92177.47;;;16.73;67.05
6198;BME280;3132;42.622;23.328;2022-11-20T07:41:58;92181.84;;;16.57;67.43
6198;BME280;3132;42.622;23.328;2022-11-20T07:44:24;92188.25;;;16.68;67.50
6198;BME280;3132;42.622;23.328;2022-11-20T07:46:49;92182.28;;;16.59;68.33
6198;BME280;3132;42.622;23.328;2022-11-20T07:49:14;92191.09;;;16.63;71.46
6198;BME280;3132;42.622;23.328;2022-11-20T07:51:40;92173.47;;;16.55;72.27
6198;BME280;3132;42.622;23.328;2022-11-20T07:54:05;92173.56;;;16.26;74.82
6198;BME280;3132;42.622;23.328;2022-11-20T07:56:30;92190.22;;;16.18;75.51
6198;BME280;3132;42.622;23.328;2022-11-20T07:58:56;92175.31;;;16.22;73.85
6198;BME280;3132;42.622;23.328;2022-11-20T08:01:21;92183.78;;;16.28;78.10
6198;BME280;3132;42.622;23.328;2022-11-20T08:03:46;92165.28;;;16.16;77.26
6198;BME280;3132;42.622;23.328;2022-11-20T08:06:12;92180.19;;;16.32;76.27
6198;BME280;3132;42.622;23.328;2022-11-20T08:08:37;92178.75;;;16.14;75.32
6198;BME280;3132;42.622;23.328;2022-11-20T08:11:05;92181.81;;;16.25;73.09
6198;BME280;3132;42.622;23.328;2022-11-20T08:13:48;92178.94;;;16.50;73.94
6198;BME280;3132;42.622;23.328;2022-11-20T08:16:33;92192.44;;;16.81;69.23
6198;BME280;3132;42.622;23.328;2022-11-20T08:18:58;92210.09;;;17.13;69.44
6198;BME280;3132;42.622;23.328;2022-11-20T08:21:23;92205.63;;;17.38;65.88
6198;BME280;3132;42.622;23.328;2022-11-20T08:23:49;92232.75;;;17.14;68.88
6198;BME280;3132;42.622;23.328;2022-11-20T08:26:14;92212.38;;;17.03;67.45
6198;BME280;3132;42.622;23.328;2022-11-20T08:28:39;92229.91;;;17.19;67.48
6198;BME280;3132;42.622;23.328;2022-11-20T08:31:05;92234.69;;;17.05;65.37
6198;BME280;3132;42.622;23.328;2022-11-20T08:33:30;92213.53;;;17.26;66.01
6198;BME280;3132;42.622;23.328;2022-11-20T08:36:01;92206.69;;;17.01;68.59
6198;BME280;3132;42.622;23.328;2022-11-20T08:38:27;92201.03;;;16.90;68.09
6198;BME280;3132;42.622;23.328;2022-11-20T08:40:56;92242.22;;;17.27;68.12
6198;BME280;3132;42.622;23.328;2022-11-20T08:43:41;92258.44;;;17.62;67.67
6198;BME280;3132;42.622;23.328;2022-11-20T08:46:06;92250.97;;;17.64;66.95
6198;BME280;3132;42.622;23.328;2022-11-20T08:48:31;92263.09;;;17.32;73.00
6198;BME280;3132;42.622;23.328;2022-11-20T08:51:00;92252.00;;;16.82;74.63
6198;BME280;3132;42.622;23.328;2022-11-20T08:53:26;92257.69;;;17.17;76.73
6198;BME280;3132;42.622;23.328;2022-11-20T08:55:51;92263.34;;;16.62;80.31
6198;BME280;3132;42.622;23.328;2022-11-20T08:58:17;92248.03;;;16.35;78.73
6198;BME280;3132;42.622;23.328;2022-11-20T09:00:42;92221.09;;;16.30;79.56
6198;BME280;3132;42.622;23.328;2022-11-20T09:03:08;92231.97;;;16.28;84.39
6198;BME280;3132;42.622;23.328;2022-11-20T09:05:33;92247.91;;;16.32;84.48
6198;BME280;3132;42.622;23.328;2022-11-20T09:07:59;92253.34;;;16.27;86.00
6198;BME280;3132;42.622;23.328;2022-11-20T09:10:28;92239.78;;;15.75;90.63
6198;BME280;3132;42.622;23.328;2022-11-20T09:12:54;92243.84;;;15.64;94.00
6198;BME280;3132;42.622;23.328;2022-11-20T09:15:20;92249.75;;;15.15;100.00
6198;BME280;3132;42.622;23.328;2022-11-20T09:20:17;92246.78;;;15.25;98.90
6198;BME280;3132;42.622;23.328;2022-11-20T09:22:43;92254.72;;;15.54;100.00
6198;BME280;3132;42.622;23.328;2022-11-20T09:25:08;92254.00;;;15.45;100.00
6198;BME280;3132;42.622;23.328;2022-11-20T09:27:34;92214.16;;;15.55;100.00
6198;BME280;3132;42.622;23.328;2022-11-20T09:30:00;92238.53;;;16.01;99.89
6198;BME280;3132;42.622;23.328;2022-11-20T09:32:26;92221.81;;;16.18;100.00
6198;BME280;3132;42.622;23.328;2022-11-20T09:34:51;92241.00;;;16.39;95.64
6198;BME280;3132;42.622;23.328;2022-11-20T09:37:16;92222.72;;;16.63;93.83
6198;BME280;3132;42.622;23.328;2022-11-20T09:39:42;92224.50;;;16.71;96.28
6198;BME280;3132;42.622;23.328;2022-11-20T09:42:41;92221.63;;;16.76;93.54
6198;BME280;3132;42.622;23.328;2022-11-20T09:45:18;92227.78;;;16.27;99.37
6198;BME280;3132;42.622;23.328;2022-11-20T09:55:21;92198.50;;;16.82;91.40
6198;BME280;3132;42.622;23.328;2022-11-20T09:57:48;92210.50;;;17.03;91.57
6198;BME280;3132;42.622;23.328;2022-11-20T10:00:16;92210.16;;;16.48;87.17
6198;BME280;3132;42.622;23.328;2022-11-20T10:02:55;92193.28;;;16.73;89.65
6198;BME280;3132;42.622;23.328;2022-11-20T10:05:35;92204.06;;;17.13;92.83
6198;BME280;3132;42.622;23.328;2022-11-20T10:08:25;92190.44;;;16.66;94.58
6198;BME280;3132;42.622;23.328;2022-11-20T10:11:04;92197.19;;;16.88;90.36
6198;BME280;3132;42.622;23.328;2022-11-20T10:22:03;92180.75;;;17.39;86.47
6198;BME280;3132;42.622;23.328;2022-11-20T10:30:07;92197.88;;;16.64;93.62
6198;BME280;3132;42.622;23.328;2022-11-20T10:32:39;92181.50;;;17.03;88.58
6198;BME280;3132;42.622;23.328;2022-11-20T10:35:31;92183.84;;;16.60;84.73
6198;BME280;3132;42.622;23.328;2022-11-20T10:38:02;92190.06;;;17.00;83.65
6198;BME280;3132;42.622;23.328;2022-11-20T10:43:02;92205.75;;;17.53;84.86
6198;BME280;3132;42.622;23.328;2022-11-20T10:48:10;92197.56;;;17.22;83.79
6198;BME280;3132;42.622;23.328;2022-11-20T10:50:41;92203.56;;;16.54;93.07
6198;BME280;3132;42.622;23.328;2022-11-20T10:56:31;92233.50;;;16.29;92.84
6198;BME280;3132;42.622;23.328;2022-11-20T10:59:28;92231.84;;;16.45;90.02
6198;BME280;3132;42.622;23.328;2022-11-20T11:01:57;92226.31;;;16.38;90.91
6198;BME280;3132;42.622;23.328;2022-11-20T11:07:07;92239.47;;;15.97;94.71
6198;BME280;3132;42.622;23.328;2022-11-20T11:09:41;92264.94;;;15.09;100.00
6198;BME280;3132;42.622;23.328;2022-11-20T11:12:09;92288.50;;;14.63;100.00
6198;BME280;3132;42.622;23.328;2022-11-20T11:14:54;92280.16;;;14.61;100.00
6198;BME280;3132;42.622;23.328;2022-11-20T11:20:17;92287.84;;;14.15;100.00
6198;BME280;3132;42.622;23.328;2022-11-20T11:25:25;92241.19;;;13.86;98.97
6198;BME280;3132;42.622;23.328;2022-11-20T11:27:51;92237.97;;;13.42;99.49
6198;BME280;3132;42.622;23.328;2022-11-20T11:30:19;92247.38;;;13.34;100.00
6198;BME280;3132;42.622;23.328;2022-11-20T11:32:46;92260.03;;;13.02;99.58
6198;BME280;3132;42.622;23.328;2022-11-20T11:35:26;92252.25;;;12.88;100.00
6198;BME280;3132;42.622;23.328;2022-11-20T11:37:54;92232.72;;;12.72;100.00
6198;BME280;3132;42.622;23.328;2022-11-20T11:40:28;92223.66;;;12.47;97.51
6198;BME280;3132;42.622;23.328;2022-11-20T11:43:02;92239.97;;;12.44;99.00
6198;BME280;3132;42.622;23.328;2022-11-20T11:45:29;92217.66;;;12.25;97.61
6198;BME280;3132;42.622;23.328;2022-11-20T11:47:57;92227.00;;;12.39;98.25
6198;BME280;3132;42.622;23.328;2022-11-20T11:50:25;92230.88;;;12.42;98.67
6198;BME280;3132;42.622;23.328;2022-11-20T11:55:30;92235.97;;;12.47;98.43
6198;BME280;3132;42.622;23.328;2022-11-20T12:01:10;92193.03;;;12.48;99.34
6198;BME280;3132;42.622;23.328;2022-11-20T12:03:38;92195.66;;;12.48;100.00
6198;BME280;3132;42.622;23.328;2022-11-20T12:06:12;92179.78;;;12.53;100.00
6198;BME280;3132;42.622;23.328;2022-11-20T12:14:33;92225.28;;;12.35;100.00
6198;BME280;3132;42.622;23.328;2022-11-20T12:17:01;92233.38;;;12.25;100.00
6198;BME280;3132;42.622;23.328;2022-11-20T12:19:29;92205.59;;;12.15;100.00
6198;BME280;3132;42.622;23.328;2022-11-20T12:25:14;92218.59;;;12.07;100.00
6198;BME280;3132;42.622;23.328;2022-11-20T12:30:32;92221.38;;;11.88;100.00
6198;BME280;3132;42.622;23.328;2022-11-20T12:33:23;92229.81;;;11.85;100.00
6198;BME280;3132;42.622;23.328;2022-11-20T12:45:27;92107.28;;;12.23;98.98
6198;BME280;3132;42.622;23.328;2022-11-20T12:56:16;92068.44;;;13.03;96.65
6198;BME280;3132;42.622;23.328;2022-11-20T13:06:41;92087.31;;;13.39;99.12
6198;BME280;3132;42.622;23.328;2022-11-20T13:09:11;92128.50;;;13.73;97.57
6198;BME280;3132;42.622;23.328;2022-11-20T13:11:46;92145.94;;;13.69;93.36
6198;BME280;3132;42.622;23.328;2022-11-20T13:14:29;92161.00;;;13.29;92.12
6198;BME280;3132;42.622;23.328;2022-11-20T13:17:04;92156.66;;;12.77;98.23
6198;BME280;3132;42.622;23.328;2022-11-20T13:19:31;92151.28;;;12.82;100.00
6198;BME280;3132;42.622;23.328;2022-11-20T13:21:57;92179.78;;;12.53;100.00
6198;BME280;3132;42.622;23.328;2022-11-20T13:24:26;92178.25;;;12.52;100.00
6198;BME280;3132;42.622;23.328;2022-11-20T13:29:27;92184.38;;;12.78;100.00
6198;BME280;3132;42.622;23.328;2022-11-20T13:32:05;92185.63;;;12.80;100.00
6198;BME280;3132;42.622;23.328;2022-11-20T13:34:31;92198.34;;;12.65;100.00
6198;BME280;3132;42.622;23.328;2022-11-20T13:36:58;92203.13;;;12.41;100.00
6198;BME280;3132;42.622;23.328;2022-11-20T13:39:29;92193.22;;;12.60;100.00
6198;BME280;3132;42.622;23.328;2022-11-20T13:42:20;92195.94;;;12.77;100.00
6198;BME280;3132;42.622;23.328;2022-11-20T13:44:53;92201.06;;;12.82;100.00
6198;BME280;3132;42.622;23.328;2022-11-20T13:47:24;92201.97;;;12.86;100.00
6198;BME280;3132;42.622;23.328;2022-11-20T13:49:51;92187.78;;;12.78;100.00
6198;BME280;3132;42.622;23.328;2022-11-20T14:01:15;92195.63;;;12.78;100.00
6198;BME280;3132;42.622;23.328;2022-11-20T14:03:42;92180.94;;;12.69;100.00
6198;BME280;3132;42.622;23.328;2022-11-20T14:06:29;92196.06;;;12.72;100.00
6198;BME280;3132;42.622;23.328;2022-11-20T14:08:57;92193.63;;;12.75;100.00
6198;BME280;3132;42.622;23.328;2022-11-20T14:11:24;92143.63;;;12.33;100.00
6198;BME280;3132;42.622;23.328;2022-11-20T14:14:18;92169.06;;;12.63;100.00
6198;BME280;3132;42.622;23.328;2022-11-20T14:16:44;92183.69;;;12.64;100.00
6198;BME280;3132;42.622;23.328;2022-11-20T14:21:44;92169.88;;;12.72;100.00
6198;BME280;3132;42.622;23.328;2022-11-20T14:24:11;92183.38;;;12.57;100.00
6198;BME280;3132;42.622;23.328;2022-11-20T14:26:44;92176.25;;;12.27;100.00
6198;BME280;3132;42.622;23.328;2022-11-20T14:29:29;92170.06;;;12.45;100.00
6198;BME280;3132;42.622;23.328;2022-11-20T14:31:56;92182.88;;;12.55;100.00
6198;BME280;3132;42.622;23.328;2022-11-20T14:34:24;92150.16;;;12.44;100.00
6198;BME280;3132;42.622;23.328;2022-11-20T14:36:55;92167.56;;;12.40;100.00
6198;BME280;3132;42.622;23.328;2022-11-20T14:39:26;92165.06;;;12.13;100.00
6198;BME280;3132;42.622;23.328;2022-11-20T14:41:54;92168.66;;;12.39;100.00
6198;BME280;3132;42.622;23.328;2022-11-20T14:44:28;92170.81;;;12.45;100.00
6198;BME280;3132;42.622;23.328;2022-11-20T14:46:55;92185.47;;;12.02;100.00
6198;BME280;3132;42.622;23.328;2022-11-20T14:49:21;92189.59;;;12.17;100.00
6198;BME280;3132;42.622;23.328;2022-11-20T14:51:46;92178.53;;;11.98;100.00
6198;BME280;3132;42.622;23.328;2022-11-20T14:54:19;92158.13;;;11.86;100.00
6198;BME280;3132;42.622;23.328;2022-11-20T14:56:55;92194.31;;;11.93;100.00
6198;BME280;3132;42.622;23.328;2022-11-20T14:59:29;92195.91;;;11.94;100.00
6198;BME280;3132;42.622;23.328;2022-11-20T15:02:07;92193.03;;;12.04;100.00